createdAt,value
2018-04-27T00:01:05.285Z,2.30
2018-04-27T00:03:35.225Z,2.07
2018-04-27T00:06:04.750Z,2.40
2018-04-27T00:08:34.261Z,2.03
2018-04-27T00:11:03.781Z,2.10
2018-04-27T00:13:33.127Z,2.20
2018-04-27T00:16:03.060Z,2.37
2018-04-27T00:18:32.591Z,2.10
2018-04-27T00:21:02.092Z,1.90
2018-04-27T00:23:31.623Z,2.10
2018-04-27T00:26:01.147Z,2.20
2018-04-27T00:28:30.658Z,1.93
2018-04-27T00:31:00.148Z,2.53
2018-04-27T00:33:29.437Z,2.13
2018-04-27T00:35:58.953Z,2.40
2018-04-27T00:38:28.480Z,2.50
2018-04-27T00:40:58.439Z,2.30
2018-04-27T00:43:27.955Z,2.43
2018-04-27T00:45:57.475Z,2.30
2018-04-27T00:48:26.975Z,1.90
2018-04-27T00:50:56.476Z,2.00
2018-04-27T00:53:25.985Z,2.10
2018-04-27T00:55:55.487Z,2.03
2018-04-27T00:58:25.022Z,2.07
2018-04-27T01:00:54.704Z,2.00
2018-04-27T01:03:24.244Z,2.00
2018-04-27T01:05:53.772Z,2.23
2018-04-27T01:08:23.666Z,2.10
2018-04-27T01:10:53.204Z,2.20
2018-04-27T01:13:22.709Z,2.23
2018-04-27T01:15:52.203Z,2.40
2018-04-27T01:18:22.099Z,2.30
2018-04-27T01:20:50.717Z,2.57
2018-04-27T01:23:20.246Z,2.10
2018-04-27T01:25:50.017Z,2.20
2018-04-27T01:28:19.929Z,2.33
2018-04-27T01:30:49.858Z,2.20
2018-04-27T01:33:19.773Z,2.37
2018-04-27T01:35:49.305Z,2.63
2018-04-27T01:38:18.836Z,2.20
2018-04-27T01:40:48.357Z,2.20
2018-04-27T01:43:17.899Z,2.23
2018-04-27T01:45:47.804Z,2.33
2018-04-27T01:48:17.717Z,2.53
2018-04-27T01:50:47.623Z,2.87
2018-04-27T01:53:17.152Z,2.60
2018-04-27T01:55:47.363Z,2.77
2018-04-27T01:58:17.287Z,2.67
2018-04-27T02:00:47.197Z,2.30
2018-04-27T02:03:17.100Z,2.70
2018-04-27T02:05:46.609Z,2.27
2018-04-27T02:08:16.512Z,2.57
2018-04-27T02:10:45.797Z,2.53
2018-04-27T02:13:15.270Z,2.40
2018-04-27T02:15:44.779Z,2.60
2018-04-27T02:18:14.290Z,3.27
2018-04-27T02:20:43.801Z,2.77
2018-04-27T02:23:13.316Z,2.70
2018-04-27T02:25:42.809Z,2.87
2018-04-27T02:28:12.581Z,2.60
2018-04-27T02:30:42.503Z,2.60
2018-04-27T02:33:12.018Z,2.83
2018-04-27T02:35:41.519Z,2.50
2018-04-27T02:38:11.065Z,2.87
2018-04-27T02:40:41.029Z,3.00
2018-04-27T02:43:10.943Z,2.60
2018-04-27T02:45:40.863Z,2.93
2018-04-27T02:48:10.769Z,2.70
2018-04-27T02:50:40.871Z,3.00
2018-04-27T02:53:10.375Z,2.90
2018-04-27T02:55:39.883Z,2.73
2018-04-27T02:58:09.417Z,3.33
2018-04-27T03:00:38.941Z,2.90
2018-04-27T03:03:08.461Z,3.10
2018-04-27T03:05:37.990Z,3.20
2018-04-27T03:08:07.907Z,3.23
2018-04-27T03:10:37.407Z,2.80
2018-04-27T03:13:06.899Z,3.33
2018-04-27T03:15:36.426Z,2.83
2018-04-27T03:18:05.954Z,3.07
2018-04-27T03:20:35.855Z,2.80
2018-04-27T03:23:05.353Z,2.73
2018-04-27T03:25:34.853Z,3.00
2018-04-27T03:28:04.724Z,3.30
2018-04-27T03:30:34.236Z,3.73
2018-04-27T03:33:03.723Z,3.27
2018-04-27T03:35:33.224Z,3.20
2018-04-27T03:38:03.330Z,3.00
2018-04-27T03:40:33.256Z,3.30
2018-04-27T03:43:03.165Z,3.40
2018-04-27T03:45:33.063Z,3.33
2018-04-27T03:48:02.572Z,3.27
2018-04-27T03:50:32.519Z,3.00
2018-04-27T03:53:02.031Z,3.40
2018-04-27T03:55:31.543Z,3.30
2018-04-27T03:58:01.039Z,3.60
2018-04-27T04:00:47.364Z,3.60
2018-04-27T04:06:27.791Z,3.20
2018-04-27T04:08:57.279Z,4.10
2018-04-27T04:11:26.793Z,3.83
2018-04-27T04:13:56.307Z,3.83
2018-04-27T04:16:25.793Z,4.20
2018-04-27T04:18:55.309Z,4.40
2018-04-27T04:21:24.831Z,4.57
2018-04-27T04:23:54.736Z,4.37
2018-04-27T04:26:24.654Z,4.43
2018-04-27T04:28:54.165Z,4.73
2018-04-27T04:31:24.085Z,4.17
2018-04-27T04:33:53.989Z,4.43
2018-04-27T04:36:23.497Z,4.60
2018-04-27T04:38:52.999Z,4.77
2018-04-27T04:41:22.501Z,4.40
2018-04-27T04:43:51.994Z,5.07
2018-04-27T04:46:21.525Z,5.10
2018-04-27T04:48:51.454Z,4.87
2018-04-27T04:51:21.380Z,5.23
2018-04-27T04:53:50.890Z,4.33
2018-04-27T04:56:20.371Z,4.40
2018-04-27T04:58:50.293Z,4.30
2018-04-27T05:01:20.205Z,4.67
2018-04-27T05:03:49.884Z,4.70
2018-04-27T05:06:19.199Z,5.23
2018-04-27T05:08:48.705Z,4.63
2018-04-27T05:11:18.273Z,4.53
2018-04-27T05:13:47.781Z,4.20
2018-04-27T05:16:17.060Z,3.80
2018-04-27T05:18:57.457Z,4.07
2018-04-27T05:21:26.964Z,3.60
2018-04-27T05:23:56.493Z,3.50
2018-04-27T05:26:26.039Z,3.93
2018-04-27T05:28:55.540Z,3.80
2018-04-27T05:31:25.540Z,3.20
2018-04-27T05:33:55.322Z,3.50
2018-04-27T05:36:24.494Z,4.00
2018-04-27T05:38:54.019Z,3.37
2018-04-27T05:41:22.856Z,3.13
2018-04-27T05:43:52.027Z,4.00
2018-04-27T05:46:21.370Z,3.60
2018-04-27T05:48:50.242Z,3.77
2018-04-27T05:51:19.672Z,3.77
2018-04-27T05:53:48.548Z,4.17
2018-04-27T05:56:17.222Z,3.60
2018-04-27T05:58:47.203Z,3.73
2018-04-27T06:01:16.896Z,3.77
2018-04-27T06:04:03.373Z,4.20
2018-04-27T06:06:32.892Z,4.10
2018-04-27T06:09:02.407Z,4.00
2018-04-27T06:11:31.929Z,3.90
2018-04-27T06:14:01.110Z,3.80
2018-04-27T06:16:30.604Z,4.10
2018-04-27T06:19:00.117Z,4.17
2018-04-27T06:21:29.882Z,4.70
2018-04-27T06:23:59.836Z,4.00
2018-04-27T06:26:29.134Z,4.33
2018-04-27T06:28:58.643Z,4.90
2018-04-27T06:31:28.774Z,4.57
2018-04-27T06:33:58.276Z,5.03
2018-04-27T06:36:27.787Z,5.10
2018-04-27T06:38:57.366Z,5.50
2018-04-27T06:41:26.882Z,5.20
2018-04-27T06:43:56.084Z,5.10
2018-04-27T06:46:24.990Z,5.13
2018-04-27T06:48:54.500Z,5.57
2018-04-27T06:51:23.536Z,5.63
2018-04-27T06:53:53.040Z,6.10
2018-04-27T06:56:22.258Z,6.40
2018-04-27T06:58:50.875Z,6.40
2018-04-27T07:02:08.209Z,6.50
2018-04-27T07:04:37.159Z,6.97
2018-04-27T07:07:06.350Z,6.37
2018-04-27T07:09:35.560Z,6.40
2018-04-27T07:12:04.730Z,7.47
2018-04-27T07:14:33.571Z,6.23
2018-04-27T07:17:03.175Z,6.20
2018-04-27T07:19:32.843Z,5.97
2018-04-27T07:22:02.764Z,6.60
2018-04-27T07:24:32.819Z,6.50
2018-04-27T07:27:02.583Z,5.90
2018-04-27T07:29:32.541Z,6.50
2018-04-27T07:32:02.189Z,6.13
2018-04-27T07:34:31.146Z,6.53
2018-04-27T07:37:00.035Z,6.57
2018-04-27T07:39:29.219Z,6.43
2018-04-27T07:41:58.391Z,6.67
2018-04-27T07:44:27.657Z,6.47
2018-04-27T07:46:56.805Z,6.80
2018-04-27T07:49:26.050Z,6.60
2018-04-27T07:51:55.327Z,6.70
2018-04-27T07:54:24.654Z,7.07
2018-04-27T07:56:53.826Z,6.17
2018-04-27T07:59:22.743Z,6.50
2018-04-27T08:01:51.616Z,6.23
2018-04-27T08:04:20.442Z,6.17
2018-04-27T08:06:49.698Z,5.77
2018-04-27T08:09:19.465Z,6.30
2018-04-27T08:11:48.324Z,6.30
2018-04-27T08:14:17.551Z,12.23
2018-04-27T08:16:46.387Z,5.40
2018-04-27T08:19:15.280Z,5.37
2018-04-27T08:21:44.154Z,6.00
2018-04-27T08:24:12.992Z,6.40
2018-04-27T08:26:41.824Z,5.80
2018-04-27T08:29:11.116Z,6.30
2018-04-27T08:31:40.370Z,6.17
2018-04-27T08:34:09.596Z,5.63
2018-04-27T08:36:39.432Z,5.67
2018-04-27T08:39:09.356Z,5.43
2018-04-27T08:41:39.634Z,6.00
2018-04-27T08:44:09.861Z,5.73
2018-04-27T08:46:39.405Z,5.73
2018-04-27T08:49:09.339Z,5.53
2018-04-27T08:51:38.200Z,5.23
2018-04-27T08:54:07.931Z,5.60
2018-04-27T08:56:36.833Z,5.47
2018-04-27T08:59:05.443Z,5.70
2018-04-27T09:01:34.970Z,6.27
2018-04-27T09:04:04.160Z,5.60
2018-04-27T09:06:33.684Z,5.40
2018-04-27T09:09:02.990Z,5.40
2018-04-27T09:11:32.523Z,5.60
2018-04-27T09:14:02.052Z,5.93
2018-04-27T09:16:31.581Z,5.97
2018-04-27T09:19:00.368Z,5.53
2018-04-27T09:21:29.875Z,4.83
2018-04-27T09:23:59.073Z,5.37
2018-04-27T09:26:28.615Z,5.40
2018-04-27T09:28:58.140Z,5.53
2018-04-27T09:31:28.038Z,5.17
2018-04-27T09:33:57.946Z,5.33
2018-04-27T09:36:27.460Z,5.43
2018-04-27T09:38:57.406Z,5.30
2018-04-27T09:41:26.249Z,5.70
2018-04-27T09:43:55.108Z,5.97
2018-04-27T09:46:24.198Z,5.40
2018-04-27T09:48:53.061Z,5.60
2018-04-27T09:51:22.310Z,5.27
2018-04-27T09:53:51.839Z,5.23
2018-04-27T09:56:21.355Z,5.53
2018-04-27T09:58:51.283Z,5.33
2018-04-27T10:01:20.790Z,5.03
2018-04-27T10:03:50.693Z,5.30
2018-04-27T10:06:19.956Z,5.40
2018-04-27T10:08:49.467Z,5.10
2018-04-27T10:11:19.019Z,5.10
2018-04-27T10:13:48.519Z,4.80
2018-04-27T10:16:18.434Z,5.60
2018-04-27T10:18:48.322Z,4.97
2018-04-27T10:21:17.840Z,5.30
2018-04-27T10:23:47.349Z,5.10
2018-04-27T10:26:22.195Z,5.00
2018-04-27T10:28:52.101Z,4.83
2018-04-27T10:31:22.052Z,4.80
2018-04-27T10:33:51.578Z,4.47
2018-04-27T10:36:21.082Z,4.63
2018-04-27T10:38:50.643Z,4.93
2018-04-27T10:41:20.556Z,4.17
2018-04-27T10:43:50.458Z,4.57
2018-04-27T10:46:20.153Z,4.73
2018-04-27T10:48:48.978Z,5.03
2018-04-27T10:51:18.091Z,4.90
2018-04-27T10:53:46.719Z,4.50
2018-04-27T10:56:15.578Z,4.73
2018-04-27T10:58:44.456Z,4.73
2018-04-27T11:01:13.060Z,4.70
2018-04-27T11:03:41.906Z,4.70
2018-04-27T11:06:10.992Z,4.63
2018-04-27T11:08:40.322Z,4.97
2018-04-27T11:11:09.769Z,4.57
2018-04-27T11:13:38.449Z,4.90
2018-04-27T11:16:07.610Z,4.43
2018-04-27T11:18:36.446Z,4.43
2018-04-27T11:21:05.268Z,4.30
2018-04-27T11:23:34.514Z,4.43
2018-04-27T11:26:03.443Z,4.37
2018-04-27T11:28:33.186Z,4.60
2018-04-27T11:31:03.313Z,4.47
2018-04-27T11:33:33.716Z,4.47
2018-04-27T11:36:02.958Z,4.27
2018-04-27T11:38:32.776Z,4.23
2018-04-27T11:41:02.498Z,4.63
2018-04-27T11:43:32.044Z,4.10
2018-04-27T11:46:01.286Z,5.20
2018-04-27T11:48:29.905Z,4.50
2018-04-27T11:50:58.798Z,4.80
2018-04-27T11:53:28.053Z,4.57
2018-04-27T11:55:56.918Z,4.30
2018-04-27T11:58:27.304Z,4.37
2018-04-27T12:00:56.469Z,4.20
2018-04-27T12:03:25.319Z,4.00
2018-04-27T12:05:54.306Z,4.57
2018-04-27T12:08:23.772Z,4.37
2018-04-27T12:10:53.213Z,4.40
2018-04-27T12:13:22.472Z,4.27
2018-04-27T12:15:51.846Z,4.10
2018-04-27T12:18:20.700Z,4.37
2018-04-27T12:20:50.790Z,4.85
2018-04-27T12:23:20.853Z,4.50
2018-04-27T12:25:50.279Z,3.87
2018-04-27T12:29:07.913Z,4.22
2018-04-27T12:31:38.124Z,5.03
2018-04-27T12:34:08.246Z,4.45
2018-04-27T12:36:37.656Z,3.75
2018-04-27T12:39:07.098Z,4.50
2018-04-27T12:41:37.650Z,4.10
2018-04-27T12:44:07.405Z,4.50
2018-04-27T12:46:38.015Z,4.10
2018-04-27T12:49:07.423Z,3.87
2018-04-27T12:51:36.818Z,4.25
2018-04-27T12:54:05.986Z,4.20
2018-04-27T12:56:35.743Z,4.60
2018-04-27T12:59:05.880Z,4.18
2018-04-27T13:01:36.672Z,3.75
2018-04-27T13:04:06.742Z,4.45
2018-04-27T13:06:36.858Z,4.10
2018-04-27T13:09:06.332Z,4.15
2018-04-27T13:11:36.896Z,4.40
2018-04-27T13:14:06.332Z,3.60
2018-04-27T13:16:36.468Z,4.30
2018-04-27T13:19:06.031Z,3.67
2018-04-27T13:21:36.224Z,3.72
2018-04-27T13:24:05.979Z,3.90
2018-04-27T13:26:36.085Z,3.60
2018-04-27T13:29:06.920Z,3.67
2018-04-27T13:31:37.014Z,3.00
2018-04-27T13:34:07.331Z,2.92
2018-04-27T13:36:37.159Z,3.10
2018-04-27T13:39:06.338Z,3.12
2018-04-27T13:41:36.422Z,3.00
2018-04-27T13:44:07.044Z,3.47
2018-04-27T13:46:37.972Z,3.05
2018-04-27T13:49:08.033Z,3.05
2018-04-27T13:51:37.426Z,3.75
2018-04-27T13:54:07.232Z,2.40
2018-04-27T13:56:37.378Z,2.60
2018-04-27T13:59:07.116Z,2.60
2018-04-27T14:01:36.520Z,2.58
2018-04-27T14:04:05.920Z,2.62
2018-04-27T14:06:35.351Z,2.50
2018-04-27T14:09:04.918Z,2.80
2018-04-27T14:11:34.363Z,3.17
2018-04-27T14:14:03.773Z,2.58
2018-04-27T14:16:33.697Z,2.42
2018-04-27T14:19:03.307Z,2.90
2018-04-27T14:21:33.124Z,2.97
2018-04-27T14:24:03.150Z,3.30
2018-04-27T14:26:33.219Z,2.83
2018-04-27T14:29:03.213Z,3.30
2018-04-27T14:31:33.310Z,3.00
2018-04-27T14:34:03.380Z,3.15
2018-04-27T14:36:33.485Z,2.75
2018-04-27T14:39:03.111Z,3.40
2018-04-27T14:41:33.187Z,3.33
2018-04-27T14:44:03.252Z,3.45
2018-04-27T14:46:33.382Z,2.75
2018-04-27T14:49:03.650Z,3.78
2018-04-27T14:51:33.742Z,3.65
2018-04-27T14:54:04.503Z,3.65
2018-04-27T14:56:33.712Z,3.03
2018-04-27T14:59:02.902Z,3.12
2018-04-27T15:01:32.310Z,3.03
2018-04-27T15:04:02.099Z,3.42
2018-04-27T15:06:31.854Z,3.20
2018-04-27T15:09:01.908Z,3.08
2018-04-27T15:11:31.718Z,3.20
2018-04-27T15:14:01.114Z,2.87
2018-04-27T15:16:31.242Z,3.25
2018-04-27T15:19:01.324Z,2.80
2018-04-27T15:21:31.086Z,2.85
2018-04-27T15:24:01.260Z,2.45
2018-04-27T15:26:30.671Z,2.58
2018-04-27T15:29:02.336Z,2.30
2018-04-27T15:31:32.568Z,2.10
2018-04-27T15:34:02.658Z,2.05
2018-04-27T15:36:32.080Z,2.72
2018-04-27T15:39:01.506Z,2.30
2018-04-27T15:41:31.317Z,2.55
2018-04-27T15:44:01.392Z,2.12
2018-04-27T15:46:31.446Z,2.28
2018-04-27T15:49:00.856Z,2.20
2018-04-27T15:51:30.924Z,1.85
2018-04-27T15:54:00.328Z,2.20
2018-04-27T15:56:29.766Z,2.10
2018-04-27T15:58:59.841Z,2.05
2018-04-27T16:01:29.010Z,2.10
2018-04-27T16:03:58.870Z,2.28
2018-04-27T16:06:28.583Z,2.17
2018-04-27T16:08:58.023Z,1.95
2018-04-27T16:11:28.107Z,2.50
2018-04-27T16:13:58.970Z,2.80
2018-04-27T16:16:29.690Z,2.35
2018-04-27T16:19:00.774Z,2.58
2018-04-27T16:21:30.349Z,2.20
2018-04-27T16:24:00.567Z,2.50
2018-04-27T16:26:30.512Z,2.20
2018-04-27T16:29:00.062Z,2.20
2018-04-27T16:31:29.466Z,2.80
2018-04-27T16:33:59.062Z,2.90
2018-04-27T16:36:28.503Z,2.55
2018-04-27T16:38:57.903Z,2.50
2018-04-27T16:41:27.669Z,2.30
2018-04-27T16:43:57.402Z,2.58
2018-04-27T16:46:27.480Z,2.55
2018-04-27T16:48:57.966Z,2.78
2018-04-27T16:51:27.692Z,2.75
2018-04-27T16:53:57.756Z,3.33
2018-04-27T16:56:27.160Z,2.83
2018-04-27T16:58:56.562Z,3.60
2018-04-27T17:01:25.970Z,2.05
2018-04-27T17:03:55.401Z,2.47
2018-04-27T17:06:24.819Z,2.53
2018-04-27T17:08:54.212Z,2.55
2018-04-27T17:11:23.624Z,2.17
2018-04-27T17:13:53.044Z,2.83
2018-04-27T17:16:22.779Z,2.45
2018-04-27T17:18:52.591Z,2.47
2018-04-27T17:21:22.379Z,2.50
2018-04-27T17:23:51.784Z,2.60
2018-04-27T17:26:21.200Z,4.97
2018-04-27T17:28:51.045Z,2.70
2018-04-27T17:31:20.938Z,2.92
2018-04-27T17:33:50.736Z,2.70
2018-04-27T17:36:20.150Z,2.65
2018-04-27T17:38:49.593Z,2.90
2018-04-27T17:41:19.590Z,2.40
2018-04-27T17:43:49.017Z,2.72
2018-04-27T17:46:18.423Z,2.35
2018-04-27T17:48:47.886Z,2.53
2018-04-27T17:51:18.138Z,2.90
2018-04-27T17:53:48.248Z,2.28
2018-04-27T17:56:17.642Z,2.40
2018-04-27T17:58:47.729Z,2.60
2018-04-27T18:01:17.484Z,3.08
2018-04-27T18:03:47.569Z,4.50
2018-04-27T18:06:17.575Z,2.85
2018-04-27T18:08:47.307Z,3.10
2018-04-27T18:11:17.811Z,2.97
2018-04-27T18:13:47.550Z,2.78
2018-04-27T18:16:17.598Z,2.85
2018-04-27T18:18:47.033Z,2.87
2018-04-27T18:21:16.205Z,2.80
2018-04-27T18:23:45.739Z,2.50
2018-04-27T18:26:15.472Z,2.55
2018-04-27T18:28:44.883Z,2.70
2018-04-27T18:31:17.519Z,2.50
2018-04-27T18:33:47.635Z,5.05
2018-04-27T18:36:17.955Z,2.78
2018-04-27T18:38:47.401Z,2.87
2018-04-27T18:41:16.795Z,3.15
2018-04-27T18:43:45.445Z,2.45
2018-04-27T18:46:14.203Z,2.47
2018-04-27T18:48:43.383Z,3.17
2018-04-27T18:51:17.231Z,2.45
2018-04-27T18:53:46.643Z,2.95
2018-04-27T18:56:26.017Z,3.10
2018-04-27T18:58:57.147Z,3.07
2018-04-27T19:01:26.687Z,2.40
2018-04-27T19:03:55.617Z,3.03
2018-04-27T19:06:25.771Z,2.53
2018-04-27T19:08:54.755Z,2.40
2018-04-27T19:11:23.753Z,2.60
2018-04-27T19:13:52.607Z,2.87
2018-04-27T19:17:06.547Z,3.60
2018-04-27T19:19:35.589Z,2.63
2018-04-27T19:22:06.807Z,2.50
2018-04-27T19:24:44.254Z,2.50
2018-04-27T19:27:13.093Z,2.80
2018-04-27T19:29:42.333Z,2.60
2018-04-27T19:32:11.203Z,2.70
2018-04-27T19:34:40.086Z,3.10
2018-04-27T19:37:08.927Z,2.60
2018-04-27T19:39:37.893Z,2.60
2018-04-27T19:42:06.763Z,2.70
2018-04-27T19:44:37.435Z,2.60
2018-04-27T19:47:06.327Z,2.67
2018-04-27T19:49:35.221Z,2.57
2018-04-27T19:52:04.928Z,2.30
2018-04-27T19:54:33.823Z,2.90
2018-04-27T19:57:02.671Z,2.90
2018-04-27T19:59:31.537Z,2.73
2018-04-27T20:03:04.091Z,3.07
2018-04-27T20:05:32.737Z,2.90
2018-04-27T20:08:02.313Z,2.57
2018-04-27T20:10:34.340Z,2.77
2018-04-27T20:13:03.110Z,3.00
2018-04-27T20:15:40.062Z,2.90
2018-04-27T20:18:21.981Z,3.10
2018-04-27T20:20:53.329Z,2.43
2018-04-27T20:23:23.636Z,2.30
2018-04-27T20:25:55.981Z,2.80
2018-04-27T20:28:29.605Z,2.60
2018-04-27T20:31:00.769Z,2.33
2018-04-27T20:33:29.391Z,2.33
2018-04-27T20:35:58.648Z,2.40
2018-04-27T20:38:32.045Z,2.20
2018-04-27T20:41:13.348Z,3.07
2018-04-27T20:43:43.878Z,2.80
2018-04-27T20:46:12.959Z,2.50
2018-04-27T20:48:41.806Z,2.70
2018-04-27T20:51:10.667Z,2.53
2018-04-27T20:53:57.892Z,2.47
2018-04-27T21:00:02.682Z,2.03
2018-04-27T21:17:36.946Z,2.00
2018-04-27T21:20:05.879Z,2.00
2018-04-27T21:22:34.520Z,2.43
2018-04-27T21:25:03.421Z,2.30
2018-04-27T21:27:37.577Z,2.17
2018-04-27T21:30:06.311Z,2.10
2018-04-27T21:32:35.083Z,1.97
2018-04-27T21:35:04.307Z,2.10
2018-04-27T21:37:32.987Z,2.43
2018-04-27T21:40:01.724Z,2.23
2018-04-27T21:42:30.869Z,1.90
2018-04-27T21:44:59.767Z,2.30
2018-04-27T21:47:46.920Z,2.07
2018-04-27T21:50:17.229Z,2.30
2018-04-27T21:52:48.316Z,2.53
2018-04-27T21:55:17.662Z,2.50
2018-04-27T22:00:43.977Z,2.20
2018-04-27T22:03:15.821Z,2.13
2018-04-27T22:05:44.534Z,2.13
2018-04-27T22:11:36.919Z,3.13
2018-04-27T22:14:05.579Z,2.67
2018-04-27T22:19:54.105Z,2.60
2018-04-27T22:22:23.013Z,2.40
2018-04-27T22:25:16.187Z,2.40
2018-04-27T22:27:46.004Z,2.40
2018-04-27T22:30:25.241Z,2.30
2018-04-27T22:32:54.779Z,2.20
2018-04-27T22:35:32.763Z,2.10
2018-04-27T22:38:01.635Z,2.10
2018-04-27T22:40:35.490Z,2.40
2018-04-27T22:43:13.031Z,2.10
2018-04-27T22:45:45.634Z,2.27
2018-04-27T22:51:24.915Z,2.07
2018-04-27T22:53:53.564Z,2.57
2018-04-27T22:56:23.561Z,2.27
2018-04-27T22:58:52.200Z,2.20
2018-04-27T23:01:21.117Z,2.57
2018-04-27T23:03:49.792Z,2.30
2018-04-27T23:06:18.797Z,2.30
2018-04-27T23:08:50.420Z,2.50
2018-04-27T23:11:25.183Z,2.20
2018-04-27T23:14:08.541Z,2.30
2018-04-27T23:16:37.566Z,2.33
2018-04-27T23:19:08.050Z,2.47
2018-04-27T23:21:58.165Z,2.43
2018-04-27T23:24:27.305Z,2.10
2018-04-27T23:27:07.100Z,2.17
2018-04-27T23:29:36.431Z,2.27
2018-04-27T23:32:05.317Z,1.77
2018-04-27T23:34:34.237Z,1.90
2018-04-27T23:37:02.919Z,2.00
2018-04-27T23:39:31.811Z,2.20
2018-04-27T23:42:00.774Z,1.80
2018-04-27T23:44:31.305Z,2.13
2018-04-27T23:47:00.227Z,1.90
2018-04-27T23:49:29.239Z,2.10
2018-04-27T23:51:58.753Z,2.00
2018-04-27T23:54:27.477Z,2.07
2018-04-27T23:57:02.831Z,1.80
2018-04-27T23:59:35.083Z,2.10
